createdAt,value
2017-12-04T00:01:36.448Z,5.50
2017-12-04T00:04:04.195Z,5.60
2017-12-04T00:06:31.953Z,5.50
2017-12-04T00:08:59.459Z,5.60
2017-12-04T00:11:27.174Z,5.50
2017-12-04T00:13:54.932Z,5.50
2017-12-04T00:16:22.875Z,5.50
2017-12-04T00:18:50.372Z,5.40
2017-12-04T00:21:17.872Z,5.40
2017-12-04T00:23:45.379Z,5.50
2017-12-04T00:26:13.134Z,5.40
2017-12-04T00:28:41.032Z,5.30
2017-12-04T00:31:09.156Z,5.40
2017-12-04T00:33:36.734Z,5.40
2017-12-04T00:36:04.448Z,5.40
2017-12-04T00:38:31.959Z,5.40
2017-12-04T00:40:59.508Z,5.40
2017-12-04T00:43:27.361Z,5.40
2017-12-04T00:45:54.921Z,5.40
2017-12-04T00:48:22.535Z,5.50
2017-12-04T00:50:51.115Z,5.50
2017-12-04T00:53:18.844Z,5.50
2017-12-04T00:55:46.611Z,5.50
2017-12-04T00:58:14.111Z,5.50
2017-12-04T01:00:41.620Z,5.50
2017-12-04T01:03:09.567Z,5.50
2017-12-04T01:05:37.538Z,5.50
2017-12-04T01:08:05.095Z,5.50
2017-12-04T01:10:32.596Z,5.50
2017-12-04T01:13:00.524Z,5.50
2017-12-04T01:15:28.044Z,5.50
2017-12-04T01:17:56.167Z,5.50
2017-12-04T01:20:23.880Z,5.50
2017-12-04T01:22:51.779Z,5.50
2017-12-04T01:25:19.424Z,5.60
2017-12-04T01:27:47.324Z,5.60
2017-12-04T01:30:14.825Z,5.50
2017-12-04T01:32:43.375Z,5.50
2017-12-04T01:35:12.386Z,5.60
2017-12-04T01:37:39.898Z,5.60
2017-12-04T01:40:08.520Z,5.50
2017-12-04T01:42:36.027Z,5.60
2017-12-04T01:45:04.296Z,5.60
2017-12-04T01:47:31.815Z,5.50
2017-12-04T01:49:59.326Z,5.60
2017-12-04T01:52:26.983Z,5.50
2017-12-04T01:54:54.492Z,5.50
2017-12-04T01:57:22.393Z,5.40
2017-12-04T01:59:50.662Z,5.50
2017-12-04T02:02:18.392Z,5.50
2017-12-04T02:04:45.927Z,5.40
2017-12-04T02:07:14.279Z,5.40
2017-12-04T02:09:41.785Z,5.40
2017-12-04T02:12:09.744Z,5.30
2017-12-04T02:14:37.272Z,5.40
2017-12-04T02:17:04.771Z,5.30
2017-12-04T02:19:32.271Z,5.40
2017-12-04T02:22:00.551Z,5.30
2017-12-04T02:24:28.055Z,5.30
2017-12-04T02:26:55.560Z,5.30
2017-12-04T02:29:23.073Z,5.30
2017-12-04T02:31:50.576Z,5.30
2017-12-04T02:34:18.087Z,5.30
2017-12-04T02:36:46.008Z,5.30
2017-12-04T02:39:14.284Z,1.80
2017-12-04T02:41:41.795Z,5.30
2017-12-04T02:44:09.663Z,5.30
2017-12-04T02:46:37.551Z,5.30
2017-12-04T02:49:05.059Z,5.30
2017-12-04T02:51:32.735Z,5.30
2017-12-04T02:54:00.244Z,5.30
2017-12-04T02:56:27.757Z,5.30
2017-12-04T02:58:55.652Z,5.30
2017-12-04T03:01:23.194Z,5.30
2017-12-04T03:03:52.473Z,5.30
2017-12-04T03:06:20.239Z,5.20
2017-12-04T03:08:47.735Z,5.30
2017-12-04T03:11:16.337Z,5.30
2017-12-04T03:13:44.104Z,5.30
2017-12-04T03:16:11.611Z,5.20
2017-12-04T03:18:39.360Z,5.30
2017-12-04T03:21:07.432Z,5.20
2017-12-04T03:23:35.195Z,5.30
2017-12-04T03:26:02.699Z,5.20
2017-12-04T03:28:30.407Z,5.20
2017-12-04T03:30:58.105Z,5.20
2017-12-04T03:33:25.607Z,5.20
2017-12-04T03:35:53.523Z,5.20
2017-12-04T03:38:21.026Z,5.20
2017-12-04T03:40:48.919Z,5.20
2017-12-04T03:43:16.423Z,5.20
2017-12-04T03:45:43.930Z,5.20
2017-12-04T03:48:11.568Z,5.20
2017-12-04T03:50:39.164Z,5.10
2017-12-04T03:53:06.673Z,5.10
2017-12-04T03:55:34.288Z,5.10
2017-12-04T03:58:01.755Z,5.10
2017-12-04T04:00:29.643Z,5.10
2017-12-04T04:02:58.179Z,5.10
2017-12-04T04:05:25.939Z,5.20
2017-12-04T04:07:53.447Z,5.20
2017-12-04T04:10:21.119Z,5.20
2017-12-04T04:12:48.644Z,5.20
2017-12-04T04:15:16.380Z,5.20
2017-12-04T04:17:44.155Z,5.20
2017-12-04T04:20:12.048Z,5.20
2017-12-04T04:22:39.940Z,5.20
2017-12-04T04:25:07.447Z,5.20
2017-12-04T04:27:34.944Z,5.20
2017-12-04T04:30:02.460Z,5.20
2017-12-04T04:32:29.967Z,5.20
2017-12-04T04:34:57.526Z,5.30
2017-12-04T04:37:25.023Z,5.30
2017-12-04T04:39:52.528Z,5.30
2017-12-04T04:42:20.419Z,5.30
2017-12-04T04:44:48.939Z,5.20
2017-12-04T04:47:16.436Z,5.30
2017-12-04T04:49:45.387Z,5.30
2017-12-04T04:52:12.888Z,5.20
2017-12-04T04:54:40.799Z,5.20
2017-12-04T04:57:08.687Z,5.30
2017-12-04T04:59:36.188Z,5.20
2017-12-04T05:02:03.712Z,5.20
2017-12-04T05:04:31.215Z,5.20
2017-12-04T05:06:58.802Z,5.20
2017-12-04T05:09:26.315Z,5.20
2017-12-04T05:11:53.824Z,5.20
2017-12-04T05:14:21.483Z,5.20
2017-12-04T05:16:49.262Z,5.20
2017-12-04T05:19:16.756Z,5.20
2017-12-04T05:21:44.272Z,5.20
2017-12-04T05:24:11.768Z,5.20
2017-12-04T05:26:39.356Z,5.20
2017-12-04T05:29:07.254Z,5.20
2017-12-04T05:31:34.755Z,5.30
2017-12-04T05:34:02.679Z,5.30
2017-12-04T05:36:30.184Z,5.30
2017-12-04T05:38:58.452Z,5.30
2017-12-04T05:41:25.976Z,5.30
2017-12-04T05:43:53.474Z,5.30
2017-12-04T05:46:21.403Z,5.20
2017-12-04T05:48:48.891Z,5.20
2017-12-04T05:51:16.393Z,5.20
2017-12-04T05:53:44.159Z,5.30
2017-12-04T05:56:12.960Z,5.30
2017-12-04T05:58:40.430Z,5.40
2017-12-04T06:01:07.925Z,5.40
2017-12-04T06:03:37.055Z,5.40
2017-12-04T06:06:04.552Z,5.40
2017-12-04T06:08:32.250Z,5.50
2017-12-04T06:10:59.750Z,5.50
2017-12-04T06:13:27.255Z,5.40
2017-12-04T06:15:54.969Z,5.40
2017-12-04T06:18:23.320Z,5.40
2017-12-04T06:20:51.212Z,5.40
2017-12-04T06:23:18.819Z,5.40
2017-12-04T06:25:46.635Z,5.40
2017-12-04T06:28:14.144Z,5.40
2017-12-04T06:30:41.647Z,5.40
2017-12-04T06:33:09.228Z,5.40
2017-12-04T06:35:38.489Z,5.40
2017-12-04T06:38:05.989Z,5.40
2017-12-04T06:40:34.138Z,5.30
2017-12-04T06:43:02.204Z,5.30
2017-12-04T06:45:30.117Z,5.30
2017-12-04T06:47:58.380Z,5.30
2017-12-04T06:50:25.885Z,6.60
2017-12-04T06:52:53.404Z,6.80
2017-12-04T06:55:21.678Z,7.30
2017-12-04T06:57:50.012Z,7.70
2017-12-04T07:00:17.768Z,7.60
2017-12-04T07:02:45.279Z,6.60
2017-12-04T07:05:12.996Z,5.80
2017-12-04T07:07:40.495Z,5.50
2017-12-04T07:10:08.484Z,5.40
2017-12-04T07:12:36.702Z,5.30
2017-12-04T07:15:04.226Z,5.20
2017-12-04T07:17:32.485Z,5.20
2017-12-04T07:20:00.192Z,5.30
2017-12-04T07:22:27.685Z,5.20
2017-12-04T07:24:55.367Z,5.20
2017-12-04T07:27:22.867Z,5.30
2017-12-04T07:29:50.939Z,5.20
2017-12-04T07:32:18.440Z,5.20
2017-12-04T07:34:46.111Z,5.20
2017-12-04T07:37:13.625Z,5.20
2017-12-04T07:39:41.381Z,5.20
2017-12-04T07:42:09.144Z,5.20
2017-12-04T07:44:36.635Z,5.20
2017-12-04T07:47:05.767Z,5.20
2017-12-04T07:49:34.027Z,5.30
2017-12-04T07:52:01.704Z,5.20
2017-12-04T07:54:29.195Z,5.20
2017-12-04T07:56:57.567Z,5.30
2017-12-04T07:59:25.062Z,5.30
2017-12-04T08:01:52.785Z,5.30
2017-12-04T08:04:20.676Z,5.30
2017-12-04T08:06:48.168Z,5.30
2017-12-04T08:09:15.772Z,5.40
2017-12-04T08:11:43.544Z,5.40
2017-12-04T08:14:11.444Z,5.40
2017-12-04T08:16:39.340Z,5.40
2017-12-04T08:19:06.875Z,5.40
2017-12-04T08:21:34.766Z,5.40
2017-12-04T08:24:03.024Z,5.40
2017-12-04T08:26:31.298Z,5.50
2017-12-04T08:28:58.801Z,5.50
2017-12-04T08:31:26.299Z,5.50
2017-12-04T08:33:53.815Z,5.40
2017-12-04T08:36:21.487Z,5.40
2017-12-04T08:38:48.991Z,5.50
2017-12-04T08:41:16.492Z,5.50
2017-12-04T08:43:44.127Z,5.50
2017-12-04T08:46:11.628Z,5.50
2017-12-04T08:48:39.540Z,5.60
2017-12-04T08:51:07.090Z,5.50
2017-12-04T08:53:35.208Z,5.60
2017-12-04T08:56:02.965Z,5.60
2017-12-04T08:58:30.693Z,5.50
2017-12-04T09:00:58.196Z,5.50
2017-12-04T09:03:25.695Z,5.50
2017-12-04T09:05:53.407Z,5.50
2017-12-04T09:08:21.796Z,5.50
2017-12-04T09:10:49.303Z,5.50
2017-12-04T09:13:16.814Z,5.60
2017-12-04T09:15:44.433Z,5.50
2017-12-04T09:18:12.131Z,5.60
2017-12-04T09:20:40.407Z,5.50
2017-12-04T09:23:07.903Z,5.50
2017-12-04T09:25:36.817Z,5.50
2017-12-04T09:28:04.316Z,5.70
2017-12-04T09:30:31.812Z,5.70
2017-12-04T09:32:59.427Z,5.80
2017-12-04T09:35:27.195Z,5.70
2017-12-04T09:37:54.956Z,5.80
2017-12-04T09:40:22.864Z,5.90
2017-12-04T09:42:51.152Z,5.90
2017-12-04T09:45:19.770Z,5.90
2017-12-04T09:47:47.267Z,6.00
2017-12-04T09:50:15.172Z,6.00
2017-12-04T09:52:42.758Z,6.10
2017-12-04T09:55:10.260Z,6.00
2017-12-04T09:57:37.774Z,6.00
2017-12-04T10:00:05.275Z,6.00
2017-12-04T10:02:33.175Z,6.00
2017-12-04T10:05:00.675Z,6.10
2017-12-04T10:07:28.383Z,6.10
2017-12-04T10:09:56.084Z,6.10
2017-12-04T10:12:23.588Z,6.10
2017-12-04T10:14:51.401Z,6.00
2017-12-04T10:17:18.962Z,6.00
2017-12-04T10:19:46.594Z,6.00
2017-12-04T10:22:15.284Z,6.00
2017-12-04T10:24:43.003Z,6.00
2017-12-04T10:27:10.528Z,6.10
2017-12-04T10:29:38.039Z,6.10
2017-12-04T10:32:05.720Z,6.20
2017-12-04T10:34:33.818Z,6.20
2017-12-04T10:37:01.439Z,6.20
2017-12-04T10:39:29.908Z,6.10
2017-12-04T10:41:57.610Z,6.20
2017-12-04T10:44:25.874Z,6.20
2017-12-04T10:46:53.379Z,6.10
2017-12-04T10:49:20.884Z,6.10
2017-12-04T10:51:48.379Z,6.10
2017-12-04T10:54:15.884Z,6.10
2017-12-04T10:56:43.384Z,6.00
2017-12-04T10:59:10.899Z,6.00
2017-12-04T11:01:38.399Z,6.00
2017-12-04T11:04:05.886Z,6.00
2017-12-04T11:06:34.112Z,6.10
2017-12-04T11:09:01.602Z,6.00
2017-12-04T11:11:30.016Z,6.00
2017-12-04T11:13:57.645Z,6.10
2017-12-04T11:16:25.913Z,6.10
2017-12-04T11:18:53.562Z,6.20
2017-12-04T11:21:21.060Z,6.20
2017-12-04T11:23:48.687Z,6.30
2017-12-04T11:26:17.547Z,6.20
2017-12-04T11:28:45.063Z,6.20
2017-12-04T11:31:12.572Z,6.30
2017-12-04T11:33:40.080Z,6.40
2017-12-04T11:36:07.967Z,6.40
2017-12-04T11:38:35.488Z,6.50
2017-12-04T11:41:03.002Z,6.50
2017-12-04T11:43:32.609Z,6.40
2017-12-04T11:46:00.519Z,6.20
2017-12-04T11:48:28.016Z,6.30
2017-12-04T11:50:55.687Z,6.30
2017-12-04T11:53:23.213Z,6.30
2017-12-04T11:55:50.734Z,6.20
2017-12-04T11:58:18.703Z,6.20
2017-12-04T12:00:47.391Z,6.20
2017-12-04T12:03:14.896Z,6.10
2017-12-04T12:05:43.255Z,6.20
2017-12-04T12:08:10.763Z,6.30
2017-12-04T12:10:38.264Z,6.30
2017-12-04T12:13:06.475Z,6.40
2017-12-04T12:15:33.985Z,6.50
2017-12-04T12:18:01.490Z,6.50
2017-12-04T12:20:28.996Z,6.50
2017-12-04T12:22:56.519Z,6.50
2017-12-04T12:25:24.019Z,6.70
2017-12-04T12:27:51.744Z,6.70
2017-12-04T12:30:19.920Z,6.70
2017-12-04T12:32:47.723Z,6.70
2017-12-04T12:35:15.233Z,6.50
2017-12-04T12:37:43.359Z,6.40
2017-12-04T12:40:11.287Z,6.40
2017-12-04T12:42:38.779Z,6.40
2017-12-04T12:45:06.521Z,6.40
2017-12-04T12:47:34.424Z,6.50
2017-12-04T12:50:02.699Z,6.50
2017-12-04T12:52:30.198Z,6.60
2017-12-04T12:54:57.684Z,6.60
2017-12-04T12:57:25.644Z,6.60
2017-12-04T12:59:53.407Z,6.70
2017-12-04T13:02:21.300Z,6.60
2017-12-04T13:04:48.832Z,6.70
2017-12-04T13:07:16.720Z,6.70
2017-12-04T13:09:44.634Z,6.70
2017-12-04T13:12:12.899Z,6.70
2017-12-04T13:14:40.399Z,6.70
2017-12-04T13:17:08.063Z,6.70
2017-12-04T13:19:35.830Z,6.70
2017-12-04T13:22:04.592Z,6.60
2017-12-04T13:24:32.095Z,6.50
2017-12-04T13:27:00.601Z,6.40
2017-12-04T13:29:28.492Z,6.40
2017-12-04T13:32:19.343Z,6.30
2017-12-04T13:34:58.629Z,6.30
2017-12-04T13:37:26.141Z,6.40
2017-12-04T13:39:53.683Z,6.30
2017-12-04T13:42:21.875Z,6.30
2017-12-04T13:44:49.379Z,6.20
2017-12-04T13:47:17.372Z,6.10
2017-12-04T13:49:45.955Z,6.10
2017-12-04T13:52:13.820Z,6.10
2017-12-04T13:54:41.349Z,6.00
2017-12-04T13:57:09.512Z,6.00
2017-12-04T13:59:37.417Z,6.00
2017-12-04T14:02:05.883Z,6.00
2017-12-04T14:04:33.416Z,6.00
2017-12-04T14:07:02.068Z,5.90
2017-12-04T14:09:29.563Z,5.90
2017-12-04T14:11:57.260Z,5.90
2017-12-04T14:14:25.024Z,5.90
2017-12-04T14:16:52.521Z,5.90
2017-12-04T14:19:20.221Z,5.90
2017-12-04T14:21:48.317Z,5.80
2017-12-04T14:24:15.807Z,5.80
2017-12-04T14:26:43.508Z,5.80
2017-12-04T14:29:11.298Z,5.80
2017-12-04T14:31:38.797Z,5.80
2017-12-04T14:34:06.698Z,5.90
2017-12-04T14:36:34.251Z,5.90
2017-12-04T14:39:01.748Z,5.80
2017-12-04T14:41:30.424Z,5.80
2017-12-04T14:43:57.916Z,5.90
2017-12-04T14:46:25.631Z,5.90
2017-12-04T14:48:53.520Z,5.90
2017-12-04T14:51:21.016Z,6.00
2017-12-04T14:53:49.300Z,6.00
2017-12-04T14:56:17.336Z,6.00
2017-12-04T14:58:44.840Z,5.90
2017-12-04T15:01:12.547Z,5.90
2017-12-04T15:03:40.298Z,5.90
2017-12-04T15:06:07.804Z,5.90
2017-12-04T15:08:35.323Z,6.00
2017-12-04T15:11:02.820Z,5.90
2017-12-04T15:13:30.336Z,5.90
2017-12-04T15:15:57.885Z,5.90
2017-12-04T15:18:25.775Z,6.00
2017-12-04T15:20:53.287Z,6.00
2017-12-04T15:23:20.817Z,6.00
2017-12-04T15:25:48.940Z,6.00
2017-12-04T15:28:16.703Z,6.00
2017-12-04T15:30:44.211Z,6.10
2017-12-04T15:33:11.719Z,6.10
2017-12-04T15:35:39.224Z,6.10
2017-12-04T15:38:07.487Z,6.10
2017-12-04T15:40:35.020Z,6.10
2017-12-04T15:43:02.538Z,6.10
2017-12-04T15:45:30.805Z,6.10
2017-12-04T15:47:58.710Z,6.10
2017-12-04T15:50:26.231Z,6.10
2017-12-04T15:52:53.725Z,6.10
2017-12-04T15:55:21.795Z,6.00
2017-12-04T15:57:49.559Z,6.10
2017-12-04T16:00:17.059Z,6.10
2017-12-04T16:02:45.086Z,6.10
2017-12-04T16:05:12.587Z,6.10
2017-12-04T16:07:40.098Z,6.00
2017-12-04T16:10:07.764Z,6.00
2017-12-04T16:12:35.527Z,6.00
2017-12-04T16:15:03.036Z,6.00
2017-12-04T16:17:30.733Z,6.00
2017-12-04T16:19:59.064Z,6.00
2017-12-04T16:22:27.195Z,6.00
2017-12-04T16:24:54.706Z,6.00
2017-12-04T16:27:22.218Z,6.00
2017-12-04T16:29:49.881Z,5.90
2017-12-04T16:32:17.380Z,5.90
2017-12-04T16:34:44.883Z,6.00
2017-12-04T16:37:12.388Z,6.00
2017-12-04T16:39:40.287Z,6.10
2017-12-04T16:42:07.784Z,6.10
2017-12-04T16:44:35.300Z,6.10
2017-12-04T16:47:02.882Z,6.10
2017-12-04T16:49:30.394Z,6.10
2017-12-04T16:51:57.902Z,6.10
2017-12-04T16:54:25.408Z,6.10
2017-12-04T16:56:53.124Z,6.20
2017-12-04T16:59:20.616Z,6.20
2017-12-04T17:01:48.908Z,6.10
2017-12-04T17:04:16.716Z,6.10
2017-12-04T17:06:44.208Z,6.10
2017-12-04T17:09:11.722Z,6.10
2017-12-04T17:11:39.244Z,6.20
2017-12-04T17:14:06.740Z,6.10
2017-12-04T17:16:35.015Z,6.10
2017-12-04T17:19:02.535Z,6.10
2017-12-04T17:21:30.436Z,6.10
2017-12-04T17:23:58.522Z,6.10
2017-12-04T17:26:26.423Z,6.20
2017-12-04T17:28:54.683Z,6.10
2017-12-04T17:31:22.589Z,6.10
2017-12-04T17:33:50.187Z,5.90
2017-12-04T17:36:18.383Z,6.00
2017-12-04T17:38:46.858Z,6.00
2017-12-04T17:41:15.124Z,5.90
2017-12-04T17:43:42.780Z,6.00
2017-12-04T17:46:10.420Z,7.40
2017-12-04T17:48:37.923Z,7.90
2017-12-04T17:51:05.420Z,8.80
2017-12-04T17:53:33.221Z,10.40
2017-12-04T17:56:01.504Z,10.10
2017-12-04T17:58:29.027Z,9.40
2017-12-04T18:00:56.544Z,7.80
2017-12-04T18:03:24.042Z,6.80
2017-12-04T18:05:51.784Z,6.40
2017-12-04T18:08:19.291Z,6.20
2017-12-04T18:10:47.271Z,6.20
2017-12-04T18:13:15.180Z,6.10
2017-12-04T18:15:43.711Z,6.10
2017-12-04T18:18:11.474Z,6.10
2017-12-04T18:20:39.240Z,6.10
2017-12-04T18:23:06.761Z,6.10
2017-12-04T18:25:35.041Z,6.00
2017-12-04T18:28:02.834Z,6.00
2017-12-04T18:30:30.343Z,6.10
2017-12-04T18:32:57.871Z,6.00
2017-12-04T18:35:25.835Z,6.00
2017-12-04T18:37:53.331Z,6.00
2017-12-04T18:40:21.372Z,6.00
2017-12-04T18:42:48.889Z,6.00
2017-12-04T18:45:16.417Z,5.90
2017-12-04T18:47:44.680Z,5.90
2017-12-04T18:50:12.396Z,5.90
2017-12-04T18:52:39.898Z,5.90
2017-12-04T18:55:07.928Z,5.90
2017-12-04T18:57:35.700Z,5.90
2017-12-04T19:00:03.450Z,6.00
2017-12-04T19:02:31.133Z,6.00
2017-12-04T19:04:58.644Z,5.90
2017-12-04T19:07:26.167Z,6.00
2017-12-04T19:09:53.894Z,6.00
2017-12-04T19:12:21.402Z,6.00
2017-12-04T19:14:48.917Z,6.00
2017-12-04T19:17:16.439Z,6.00
2017-12-04T19:19:44.714Z,6.10
2017-12-04T19:22:12.401Z,6.10
2017-12-04T19:24:40.165Z,6.10
2017-12-04T19:27:07.664Z,6.30
2017-12-04T19:29:35.173Z,6.20
2017-12-04T19:32:02.762Z,6.30
2017-12-04T19:34:30.312Z,6.40
2017-12-04T19:36:57.823Z,6.40
2017-12-04T19:39:25.735Z,6.30
2017-12-04T19:41:54.207Z,6.30
2017-12-04T19:44:21.720Z,6.30
2017-12-04T19:46:49.222Z,6.30
2017-12-04T19:49:16.728Z,6.30
2017-12-04T19:51:44.628Z,6.30
2017-12-04T19:54:12.538Z,6.20
2017-12-04T19:56:40.031Z,6.30
2017-12-04T19:59:08.736Z,6.20
2017-12-04T20:01:36.236Z,6.20
2017-12-04T20:04:04.140Z,6.20
2017-12-04T20:06:31.652Z,6.20
2017-12-04T20:08:59.169Z,6.10
2017-12-04T20:11:27.075Z,6.20
2017-12-04T20:13:56.092Z,6.20
2017-12-04T20:16:23.796Z,6.30
2017-12-04T20:18:51.588Z,6.30
2017-12-04T20:21:19.668Z,6.30
2017-12-04T20:23:47.420Z,6.10
2017-12-04T20:26:14.932Z,6.10
2017-12-04T20:28:42.456Z,6.20
2017-12-04T20:31:09.973Z,6.20
2017-12-04T20:33:38.270Z,6.20
2017-12-04T20:36:05.779Z,6.20
2017-12-04T20:38:34.319Z,6.20
2017-12-04T20:41:02.595Z,6.20
2017-12-04T20:43:30.095Z,6.30
2017-12-04T20:45:58.535Z,6.30
2017-12-04T20:48:26.291Z,6.30
2017-12-04T20:50:54.042Z,6.30
2017-12-04T20:53:21.942Z,6.30
2017-12-04T20:55:49.443Z,6.30
2017-12-04T20:58:16.939Z,6.30
2017-12-04T21:00:44.461Z,6.30
2017-12-04T21:03:12.353Z,6.30
2017-12-04T21:05:39.862Z,6.30
2017-12-04T21:08:34.807Z,6.20
2017-12-04T21:11:15.108Z,6.30
2017-12-04T21:13:54.715Z,6.30
2017-12-04T21:16:44.857Z,6.30
2017-12-04T21:19:12.757Z,6.30
2017-12-04T21:21:40.259Z,6.40
2017-12-04T21:24:07.787Z,6.30
2017-12-04T21:26:35.848Z,6.40
2017-12-04T21:29:03.747Z,6.50
2017-12-04T21:31:32.031Z,6.50
2017-12-04T21:33:59.932Z,6.50
2017-12-04T21:36:27.840Z,6.50
2017-12-04T21:38:55.343Z,6.50
2017-12-04T21:41:23.636Z,6.50
2017-12-04T21:43:51.130Z,6.60
2017-12-04T21:46:19.439Z,6.60
2017-12-04T21:48:47.250Z,6.60
2017-12-04T21:51:15.532Z,6.60
2017-12-04T21:53:43.143Z,7.30
2017-12-04T21:56:11.341Z,7.60
2017-12-04T21:58:38.912Z,7.20
2017-12-04T22:01:07.051Z,6.90
2017-12-04T22:03:35.380Z,6.80
2017-12-04T22:06:03.132Z,6.60
2017-12-04T22:08:31.202Z,6.60
2017-12-04T22:10:59.104Z,6.60
2017-12-04T22:13:27.664Z,6.60
2017-12-04T22:15:55.175Z,6.50
2017-12-04T22:18:23.087Z,6.50
2017-12-04T22:20:50.587Z,6.50
2017-12-04T22:23:18.184Z,6.50
2017-12-04T22:25:45.693Z,6.50
2017-12-04T22:28:13.889Z,6.50
2017-12-04T22:30:42.680Z,6.50
2017-12-04T22:33:10.176Z,6.50
2017-12-04T22:35:38.076Z,6.50
2017-12-04T22:38:05.592Z,6.40
2017-12-04T22:40:34.667Z,6.40
2017-12-04T22:43:02.352Z,6.40
2017-12-04T22:45:30.116Z,6.40
2017-12-04T22:47:57.888Z,6.40
2017-12-04T22:50:25.383Z,6.40
2017-12-04T22:52:53.280Z,6.40
2017-12-04T22:55:21.180Z,6.40
2017-12-04T22:57:48.688Z,6.50
2017-12-04T23:00:28.363Z,6.50
2017-12-04T23:02:56.268Z,6.60
2017-12-04T23:05:24.148Z,6.60
2017-12-04T23:07:52.281Z,6.60
2017-12-04T23:10:20.353Z,6.70
2017-12-04T23:12:47.846Z,6.70
2017-12-04T23:15:16.123Z,6.70
2017-12-04T23:17:43.625Z,6.80
2017-12-04T23:20:11.899Z,6.80
2017-12-04T23:22:39.396Z,6.80
2017-12-04T23:25:07.856Z,6.80
2017-12-04T23:27:35.357Z,6.80
2017-12-04T23:30:03.623Z,6.90
2017-12-04T23:32:31.891Z,6.90
2017-12-04T23:34:59.519Z,6.90
2017-12-04T23:37:27.032Z,6.90
2017-12-04T23:39:54.932Z,6.90
2017-12-04T23:42:23.779Z,6.90
2017-12-04T23:44:51.471Z,7.00
2017-12-04T23:47:20.362Z,7.00
2017-12-04T23:49:49.272Z,7.00
2017-12-04T23:52:16.776Z,7.00
2017-12-04T23:54:44.675Z,7.10
2017-12-04T23:57:12.172Z,7.10
2017-12-04T23:59:39.776Z,7.10
